Terminal Aerodrome Forecast
Issued by NWS Duluth, MN

Home | Current Version | Previous Version | Text Only | Print | Product List | Glossary On
Versions: 1 2 3 4 5 6 7 8 9 10 11 12 13 14 15 16 17 18 19 20 21 22 23 24 25 26 27 28 29 30 31
000
FTUS43 KDLH 162300
TAFDLH
TAF
KDLH 162329Z 1700/1724 25012KT P6SM SCT060
     FM170200 25005KT P6SM SCT100
     FM171600 34006KT P6SM SCT100
     FM171900 08013G22KT P6SM SCT015 OVC025=

USA.gov is the U.S. government's official web portal to all federal, state and local government web resources and services.